Time;durP1;ratioP1;P1;durP2;ratioP2;P2;SDS_P1;SDS_P2;PMS_P1;PMS_P2;Temp;Humidity;BMP_temperature;BMP_pressure;BME280_temperature;BME280_humidity;BME280_pressure;Samples;Min_cycle;Max_cycle;Signal;HPM_P1;HPM_P2
2022/01/05 00:00:05;;;;;;;0.30;0.30;;;;;;;23.32;15.60;97648.66;5073028;28;20025;-67
2022/01/05 00:02:31;;;;;;;0.30;0.30;;;;;;;23.31;15.59;97649.78;5071406;28;20067;-67
2022/01/05 00:04:56;;;;;;;0.28;0.28;;;;;;;23.36;15.60;97649.53;5072917;28;20033;-67
2022/01/05 00:07:21;;;;;;;0.30;0.30;;;;;;;23.35;15.56;97645.25;5072556;28;20418;-67
2022/01/05 00:09:48;;;;;;;0.30;0.30;;;;;;;23.34;15.58;97649.09;5072893;28;20024;-67
2022/01/05 00:12:14;;;;;;;0.35;0.35;;;;;;;23.34;15.63;97645.59;5072510;28;20017;-68
2022/01/05 00:14:39;;;;;;;0.30;0.30;;;;;;;23.37;15.71;97651.16;5072810;28;20443;-68
2022/01/05 00:17:04;;;;;;;0.82;0.50;;;;;;;23.33;15.54;97647.50;5072711;28;20045;-67
2022/01/05 00:19:30;;;;;;;0.30;0.30;;;;;;;23.33;16.05;97650.22;5072597;28;20021;-68
2022/01/05 00:21:55;;;;;;;0.30;0.30;;;;;;;23.28;15.74;97647.72;5073134;28;20033;-67
2022/01/05 00:24:21;;;;;;;0.25;0.25;;;;;;;23.31;15.68;97657.94;5072832;28;20429;-68
2022/01/05 00:26:46;;;;;;;0.30;0.30;;;;;;;23.33;15.67;97650.22;5053894;28;20455;-67
2022/01/05 00:29:12;;;;;;;0.52;0.30;;;;;;;23.32;15.65;97645.91;5053049;28;20050;-67
2022/01/05 00:31:37;;;;;;;0.73;0.40;;;;;;;23.28;15.89;97650.44;5057717;28;20044;-67
2022/01/05 00:34:03;;;;;;;0.20;0.20;;;;;;;23.28;15.90;97647.72;5056491;28;20363;-67
2022/01/05 00:36:28;;;;;;;0.20;0.20;;;;;;;23.31;16.01;97646.25;5056377;28;20087;-67
2022/01/05 00:38:54;;;;;;;0.30;0.30;;;;;;;23.32;15.92;97645.09;5056044;28;20368;-67
2022/01/05 00:41:19;;;;;;;0.30;0.30;;;;;;;23.27;15.99;97632.50;5056281;28;20021;-67
2022/01/05 00:43:44;;;;;;;0.20;0.20;;;;;;;23.29;16.08;97634.91;5056100;28;20074;-67
2022/01/05 00:46:10;;;;;;;0.30;0.30;;;;;;;23.31;15.96;97633.41;5055724;28;20483;-67
2022/01/05 00:48:35;;;;;;;0.30;0.30;;;;;;;23.31;15.98;97636.16;5054694;28;20025;-67
2022/01/05 00:51:04;;;;;;;0.30;0.30;;;;;;;23.28;15.89;97625.91;5056024;28;20036;-67
2022/01/05 00:53:30;;;;;;;0.40;0.30;;;;;;;23.28;15.95;97636.03;5055539;28;20029;-66
2022/01/05 00:55:55;;;;;;;0.30;0.30;;;;;;;23.23;16.05;97624.22;5055561;28;20102;-67
2022/01/05 00:58:20;;;;;;;0.30;0.30;;;;;;;23.29;15.83;97619.34;5055974;28;20036;-67
2022/01/05 01:00:46;;;;;;;0.25;0.25;;;;;;;23.28;15.97;97616.94;5055668;28;20495;-67
2022/01/05 01:03:11;;;;;;;0.30;0.30;;;;;;;23.29;15.93;97622.06;5055772;28;20028;-67
2022/01/05 01:05:36;;;;;;;0.30;0.30;;;;;;;23.28;15.88;97614.22;5055477;28;20025;-67
2022/01/05 01:08:02;;;;;;;0.50;0.50;;;;;;;23.27;16.02;97613.44;5055721;28;20029;-67
2022/01/05 01:10:27;;;;;;;0.20;0.20;;;;;;;23.26;15.89;97622.75;5055687;28;20025;-67
2022/01/05 01:12:53;;;;;;;0.30;0.30;;;;;;;23.27;15.96;97608.00;5055240;28;20415;-67
2022/01/05 01:15:18;;;;;;;0.32;0.32;;;;;;;23.29;15.92;97616.63;5055509;28;20029;-67
2022/01/05 01:17:44;;;;;;;0.22;0.22;;;;;;;23.29;15.97;97616.63;5055093;28;20496;-67
2022/01/05 01:20:09;;;;;;;0.35;0.30;;;;;;;23.23;16.08;97612.50;5055441;28;20024;-67
2022/01/05 01:22:36;;;;;;;0.25;0.20;;;;;;;23.22;16.20;97608.22;5055476;28;20036;-67
2022/01/05 01:25:02;;;;;;;0.30;0.30;;;;;;;23.25;16.11;97615.72;5058613;28;20028;-69
2022/01/05 01:27:27;;;;;;;0.30;0.30;;;;;;;23.24;16.13;97608.66;5075375;28;20029;-67
2022/01/05 01:29:52;;;;;;;0.20;0.20;;;;;;;23.25;16.04;97604.81;5075936;28;20055;-67
2022/01/05 01:32:19;;;;;;;0.47;0.40;;;;;;;23.20;16.37;97602.31;5074847;28;20409;-67
2022/01/05 01:34:44;;;;;;;0.30;0.30;;;;;;;23.21;16.22;97604.69;5075235;28;20025;-67
2022/01/05 01:37:10;;;;;;;0.60;0.50;;;;;;;23.24;16.20;97600.50;5075124;28;20107;-67
2022/01/05 01:39:35;;;;;;;0.30;0.30;;;;;;;23.23;16.38;97602.44;5074849;28;20508;-67
2022/01/05 01:42:01;;;;;;;0.30;0.30;;;;;;;23.22;16.27;97605.50;5074979;28;20074;-67
2022/01/05 01:44:26;;;;;;;0.38;0.38;;;;;;;23.24;16.31;97593.09;5075296;28;20035;-67
2022/01/05 01:46:53;;;;;;;0.40;0.40;;;;;;;23.25;16.21;97593.91;5074909;28;20378;-66
2022/01/05 01:49:18;;;;;;;0.40;0.40;;;;;;;23.23;16.22;97590.72;5075245;28;20032;-66
2022/01/05 01:51:45;;;;;;;0.50;0.25;;;;;;;23.18;16.21;97582.75;5075077;28;20039;-67
2022/01/05 01:54:18;;;;;;;0.30;0.30;;;;;;;23.23;16.08;97579.81;5076874;28;20024;-67
2022/01/05 01:56:44;;;;;;;0.45;0.45;;;;;;;23.25;16.15;97583.03;5060803;28;20025;-67
2022/01/05 01:59:09;;;;;;;0.30;0.30;;;;;;;23.23;16.20;97585.28;5077508;28;20481;-67
2022/01/05 02:01:35;;;;;;;0.30;0.30;;;;;;;23.17;16.55;97575.75;5076605;28;20024;-67
2022/01/05 02:04:00;;;;;;;0.20;0.20;;;;;;;23.22;16.47;97583.69;5078761;28;20037;-67
2022/01/05 02:06:26;;;;;;;0.30;0.30;;;;;;;23.24;16.29;97581.41;5078244;28;20024;-67
2022/01/05 02:08:51;;;;;;;0.43;0.30;;;;;;;23.24;16.28;97575.97;5077458;28;20028;-67
2022/01/05 02:11:18;;;;;;;0.43;0.30;;;;;;;23.18;16.43;97578.13;5075965;28;20035;-67
2022/01/05 02:13:44;;;;;;;0.40;0.32;;;;;;;23.19;16.49;97585.16;5074138;28;20074;-69
2022/01/05 02:16:09;;;;;;;0.30;0.30;;;;;;;23.21;16.35;97584.81;5074508;28;20029;-67
2022/01/05 02:21:07;;;;;;;0.30;0.30;;;;;;;23.24;16.35;97581.41;5074319;28;20479;-66
2022/01/05 02:23:34;;;;;;;0.22;0.20;;;;;;;23.20;16.42;97586.75;5074242;28;20024;-68
2022/01/05 02:25:59;;;;;;;0.10;0.10;;;;;;;23.21;16.51;97588.31;5063858;28;20096;-67
2022/01/05 02:28:24;;;;;;;0.22;0.22;;;;;;;23.21;16.38;97579.38;5054938;28;20029;-67
2022/01/05 02:30:52;;;;;;;0.20;0.20;;;;;;;23.21;16.38;97582.09;5054241;28;20079;-67
2022/01/05 02:33:17;;;;;;;0.40;0.40;;;;;;;23.18;16.51;97578.13;5054336;28;20017;-67
2022/01/05 02:35:43;;;;;;;0.28;0.25;;;;;;;23.20;16.58;97585.97;5054186;28;20375;-67
2022/01/05 02:38:08;;;;;;;0.25;0.25;;;;;;;23.19;16.59;97581.66;5054110;28;20079;-67
2022/01/05 02:40:33;;;;;;;0.30;0.22;;;;;;;23.19;16.56;97584.38;5053683;28;20491;-67
2022/01/05 02:42:59;;;;;;;0.20;0.20;;;;;;;23.16;16.65;97580.41;5053899;28;20057;-67
2022/01/05 02:45:24;;;;;;;0.25;0.25;;;;;;;23.21;16.57;97587.53;5053847;28;20029;-67
2022/01/05 02:47:51;;;;;;;0.20;0.20;;;;;;;23.21;16.74;97587.53;5053592;28;20414;-67
2022/01/05 02:50:16;;;;;;;0.30;0.30;;;;;;;23.20;16.82;97588.69;5053777;28;20071;-67
2022/01/05 02:52:42;;;;;;;0.30;0.30;;;;;;;23.14;16.77;97582.66;5052574;28;20024;-67
2022/01/05 02:55:08;;;;;;;0.30;0.30;;;;;;;23.18;16.76;97588.22;5053372;28;20368;-67
2022/01/05 02:57:34;;;;;;;0.22;0.22;;;;;;;23.18;16.72;97586.31;5053335;28;20040;-67
2022/01/05 02:59:59;;;;;;;0.30;0.30;;;;;;;23.20;16.58;97586.75;5053653;28;20029;-68
2022/01/05 03:02:25;;;;;;;0.30;0.30;;;;;;;23.14;16.86;97582.66;5053291;28;20537;-67
2022/01/05 03:04:50;;;;;;;0.30;0.30;;;;;;;23.18;16.71;97583.59;5053285;28;20071;-67
2022/01/05 03:07:16;;;;;;;0.22;0.22;;;;;;;23.20;16.83;97594.16;5053537;28;20031;-67
2022/01/05 03:09:42;;;;;;;0.40;0.40;;;;;;;23.16;16.69;97582.31;5053244;28;20051;-67
2022/01/05 03:12:08;;;;;;;0.32;0.32;;;;;;;23.15;16.80;97583.47;5053449;28;20047;-67
2022/01/05 03:14:33;;;;;;;0.30;0.30;;;;;;;23.18;16.83;97589.03;5053441;28;20394;-67
2022/01/05 03:16:59;;;;;;;0.30;0.30;;;;;;;23.18;16.91;97591.75;5053028;28;20467;-67
2022/01/05 03:19:24;;;;;;;0.25;0.25;;;;;;;23.18;16.81;97594.47;5053172;28;20352;-67
2022/01/05 03:21:50;;;;;;;0.38;0.30;;;;;;;23.15;16.96;97594.38;5051839;28;20037;-67
2022/01/05 03:24:15;;;;;;;0.35;0.25;;;;;;;23.13;17.17;97586.53;5053103;28;20122;-67
2022/01/05 03:26:40;;;;;;;0.20;0.20;;;;;;;23.15;16.83;97588.91;5068055;28;20074;-67
2022/01/05 03:29:06;;;;;;;0.20;0.20;;;;;;;23.16;16.80;97590.50;5073302;28;20030;-67
2022/01/05 03:31:31;;;;;;;0.43;0.20;;;;;;;23.14;17.00;97587.31;5073375;28;20032;-67
2022/01/05 03:33:57;;;;;;;0.30;0.30;;;;;;;23.17;16.84;97594.81;5073305;28;20467;-67
2022/01/05 03:36:22;;;;;;;0.35;0.35;;;;;;;23.17;17.04;97592.09;5073049;28;20048;-67
2022/01/05 03:38:47;;;;;;;0.28;0.28;;;;;;;23.16;17.05;97591.31;5073000;28;20025;-67
2022/01/05 03:41:13;;;;;;;0.20;0.20;;;;;;;23.14;16.96;97590.03;5073249;28;20036;-67
2022/01/05 03:43:38;;;;;;;0.40;0.38;;;;;;;23.13;16.98;97597.44;5073222;28;20035;-67
2022/01/05 03:46:04;;;;;;;0.20;0.20;;;;;;;23.14;17.00;97595.47;5071792;28;20182;-67
2022/01/05 03:48:29;;;;;;;0.30;0.30;;;;;;;23.17;16.82;97600.25;5073103;28;20017;-67
2022/01/05 03:50:55;;;;;;;0.30;0.30;;;;;;;23.12;16.86;97595.81;5073152;28;20028;-68
2022/01/05 03:53:20;;;;;;;0.22;0.22;;;;;;;23.14;17.04;97593.56;5072680;28;20055;-68
2022/01/05 03:55:46;;;;;;;0.30;0.30;;;;;;;23.16;16.95;97593.22;5073162;28;20059;-66
2022/01/05 03:58:11;;;;;;;0.30;0.30;;;;;;;23.17;16.77;97592.09;5073080;28;20025;-67
2022/01/05 04:00:42;;;;;;;0.30;0.30;;;;;;;23.12;16.94;97584.94;5072759;28;20386;-67
2022/01/05 04:03:07;;;;;;;0.38;0.38;;;;;;;23.14;16.82;97598.22;5072944;28;20028;-67
2022/01/05 04:05:33;;;;;;;0.35;0.35;;;;;;;23.22;16.85;97594.59;5073652;28;20471;-67
2022/01/05 04:07:58;;;;;;;0.40;0.40;;;;;;;23.22;16.68;97589.94;5076525;28;20024;-67
2022/01/05 04:10:24;;;;;;;0.30;0.30;;;;;;;23.28;16.81;97587.78;5076573;28;20020;-67
2022/01/05 04:12:49;;;;;;;0.30;0.30;;;;;;;23.30;16.82;97588.25;5076269;28;20027;-67
2022/01/05 04:15:15;;;;;;;0.30;0.30;;;;;;;23.33;16.62;97589.47;5076775;28;20054;-67
2022/01/05 04:17:41;;;;;;;0.40;0.40;;;;;;;23.33;16.62;97579.38;5076042;28;20487;-67
2022/01/05 04:20:07;;;;;;;0.40;0.40;;;;;;;23.39;16.59;97583.47;5076541;28;20035;-67
2022/01/05 04:22:32;;;;;;;0.30;0.30;;;;;;;23.38;16.61;97590.03;5077067;28;20039;-67
2022/01/05 04:24:58;;;;;;;0.20;0.20;;;;;;;23.44;16.58;97582.47;5075257;28;20443;-67
2022/01/05 04:27:23;;;;;;;0.30;0.30;;;;;;;23.47;16.49;97583.69;5076080;28;20479;-67
2022/01/05 04:29:48;;;;;;;0.20;0.20;;;;;;;23.49;16.65;97592.31;5076662;28;20040;-67
2022/01/05 04:32:14;;;;;;;0.20;0.20;;;;;;;23.47;16.60;97584.47;5076304;28;20024;-67
2022/01/05 04:34:39;;;;;;;0.20;0.20;;;;;;;23.51;16.70;97585.41;5076243;28;20024;-67
2022/01/05 04:37:05;;;;;;;0.30;0.30;;;;;;;23.54;16.54;97575.72;5076007;28;20024;-67
2022/01/05 04:39:31;;;;;;;0.30;0.30;;;;;;;23.53;16.62;97582.34;5074725;28;20115;-67
2022/01/05 04:41:56;;;;;;;0.30;0.30;;;;;;;23.56;16.50;97568.81;5076250;28;20024;-67
2022/01/05 04:44:22;;;;;;;0.30;0.30;;;;;;;23.60;16.30;97572.44;5075966;28;20059;-68
2022/01/05 04:46:47;;;;;;;0.30;0.30;;;;;;;23.64;16.32;97578.00;5076523;28;20041;-68
2022/01/05 04:49:12;;;;;;;0.30;0.30;;;;;;;23.65;16.32;97579.59;5076691;28;20029;-68
2022/01/05 04:51:38;;;;;;;0.30;0.30;;;;;;;23.65;16.21;97579.59;5076174;28;20429;-67
2022/01/05 04:54:03;;;;;;;0.28;0.28;;;;;;;23.67;16.28;97568.34;5076030;28;20024;-68
2022/01/05 04:56:29;;;;;;;0.32;0.32;;;;;;;23.67;16.35;97574.59;5076247;28;20027;-68
2022/01/05 04:58:56;;;;;;;0.43;0.43;;;;;;;23.71;16.18;97577.44;5076811;28;20157;-67
2022/01/05 05:01:22;;;;;;;0.28;0.28;;;;;;;23.72;16.28;97577.09;5076290;28;20044;-67
2022/01/05 05:03:47;;;;;;;0.40;0.40;;;;;;;23.74;16.27;97576.75;5058245;28;20099;-67
2022/01/05 05:06:13;;;;;;;0.30;0.30;;;;;;;23.77;15.98;97570.63;5076365;28;20032;-67
2022/01/05 05:08:38;;;;;;;0.35;0.35;;;;;;;23.78;16.27;97562.09;5076627;28;20028;-67
2022/01/05 05:11:04;;;;;;;0.20;0.20;;;;;;;23.80;15.96;97565.25;5077222;28;20379;-67
2022/01/05 05:13:29;;;;;;;0.30;0.30;;;;;;;23.78;16.19;97566.72;5076596;28;20029;-67
2022/01/05 05:15:54;;;;;;;0.30;0.30;;;;;;;23.81;16.05;97564.13;5074882;28;20046;-67
2022/01/05 05:18:20;;;;;;;0.40;0.40;;;;;;;23.85;16.11;97560.72;5055486;28;20049;-67
2022/01/05 05:20:45;;;;;;;0.30;0.30;;;;;;;23.89;15.95;97561.66;5055273;28;20091;-66
2022/01/05 05:23:11;;;;;;;0.80;0.50;;;;;;;23.90;16.15;97552.31;5055287;28;20435;-67
2022/01/05 05:25:36;;;;;;;0.60;0.52;;;;;;;23.91;16.19;97554.69;5051602;28;20095;-67
2022/01/05 05:28:01;;;;;;;1.77;0.50;;;;;;;23.93;16.06;97551.63;5035588;28;20036;-67
2022/01/05 05:30:27;;;;;;;0.80;0.70;;;;;;;23.95;15.86;97554.78;5035313;28;20033;-66
2022/01/05 05:32:55;;;;;;;1.15;0.60;;;;;;;23.98;15.93;97559.56;5035176;28;20025;-67
2022/01/05 05:35:21;;;;;;;1.08;0.70;;;;;;;23.96;15.96;97559.91;5033683;28;20040;-67
2022/01/05 05:37:46;;;;;;;1.17;0.52;;;;;;;23.99;15.87;97551.03;5035092;28;20030;-68
2022/01/05 05:40:12;;;;;;;0.55;0.45;;;;;;;23.97;16.12;97552.50;5034933;28;20472;-67
2022/01/05 05:42:37;;;;;;;1.38;0.50;;;;;;;24.00;15.95;97551.81;5035218;28;20052;-66
2022/01/05 05:45:03;;;;;;;2.53;0.60;;;;;;;24.03;16.04;97555.81;5034971;28;20037;-67
2022/01/05 05:47:29;;;;;;;0.73;0.60;;;;;;;23.94;15.87;97553.19;5034928;28;20025;-67
2022/01/05 05:49:54;;;;;;;0.40;0.40;;;;;;;24.04;15.95;97558.16;5034901;28;20022;-67
2022/01/05 05:52:19;;;;;;;0.43;0.43;;;;;;;24.06;15.78;97563.28;5035250;28;20056;-67
2022/01/05 05:54:45;;;;;;;0.65;0.47;;;;;;;24.02;15.87;97555.00;5034890;28;20362;-67
2022/01/05 05:57:10;;;;;;;0.40;0.40;;;;;;;24.06;16.07;97560.56;5034835;28;20029;-67
2022/01/05 05:59:35;;;;;;;0.50;0.50;;;;;;;24.08;15.92;97556.34;5034713;28;20036;-67
2022/01/05 06:02:01;;;;;;;1.30;0.50;;;;;;;23.91;16.02;97559.38;5034375;28;20407;-67
2022/01/05 06:04:26;;;;;;;0.57;0.30;;;;;;;24.10;16.10;97570.44;5034505;28;20057;-68
2022/01/05 06:06:52;;;;;;;0.30;0.30;;;;;;;24.14;16.00;97559.63;5033002;28;20467;-67
2022/01/05 06:09:17;;;;;;;0.38;0.38;;;;;;;24.15;16.15;97572.94;5034500;28;20036;-67
2022/01/05 06:11:43;;;;;;;0.40;0.40;;;;;;;24.16;16.09;97571.78;5034535;28;20040;-68
2022/01/05 06:14:08;;;;;;;0.30;0.30;;;;;;;24.22;16.01;97571.56;5033022;28;20448;-67
2022/01/05 06:16:34;;;;;;;0.40;0.40;;;;;;;24.17;16.18;97573.38;5039348;28;20040;-69
2022/01/05 06:18:59;;;;;;;0.40;0.40;;;;;;;24.25;16.13;97573.56;5054691;28;20088;-69
2022/01/05 06:21:24;;;;;;;0.40;0.40;;;;;;;24.26;16.07;97575.16;5052782;28;20033;-67
2022/01/05 06:23:51;;;;;;;0.47;0.30;;;;;;;24.31;16.46;97569.47;5053250;28;20106;-67
2022/01/05 06:26:16;;;;;;;0.30;0.30;;;;;;;24.33;16.28;97564.44;5061017;28;20032;-67
2022/01/05 06:28:42;;;;;;;0.57;0.50;;;;;;;24.35;16.24;97565.69;5073140;28;20025;-67
2022/01/05 06:31:07;;;;;;;3.53;0.55;;;;;;;24.42;16.18;97567.03;5073639;28;20021;-68
2022/01/05 06:33:33;;;;;;;3.85;0.68;;;;;;;24.35;16.19;97562.16;5073589;28;20032;-67
2022/01/05 06:35:59;;;;;;;1.38;0.65;;;;;;;24.36;16.18;97563.75;5073858;28;20025;-67
2022/01/05 06:38:25;;;;;;;1.10;0.60;;;;;;;24.40;16.23;97561.13;5074083;28;20024;-67
2022/01/05 06:40:50;;;;;;;0.35;0.35;;;;;;;24.19;16.28;97560.16;5074267;28;20028;-68
2022/01/05 06:43:15;;;;;;;1.42;0.70;;;;;;;24.33;16.29;97548.84;5073847;28;20035;-67
2022/01/05 06:45:41;;;;;;;3.33;0.60;;;;;;;24.35;15.96;97559.44;5073243;28;20486;-68
2022/01/05 06:48:06;;;;;;;2.13;0.88;;;;;;;24.44;16.23;97553.81;5073689;28;20090;-67
2022/01/05 06:50:32;;;;;;;1.65;0.70;;;;;;;24.46;16.06;97557.78;5073263;28;20490;-68
2022/01/05 06:52:57;;;;;;;1.02;0.60;;;;;;;24.46;16.10;97557.78;5073794;28;20027;-68
2022/01/05 06:55:23;;;;;;;0.90;0.70;;;;;;;24.46;16.00;97552.34;5073145;28;20084;-68
2022/01/05 06:57:51;;;;;;;1.50;0.80;;;;;;;24.46;15.86;97557.00;5073501;28;20031;-67
2022/01/05 07:00:16;;;;;;;2.97;0.93;;;;;;;24.46;16.24;97552.34;5072433;28;20028;-68
2022/01/05 07:02:42;;;;;;;4.03;1.42;;;;;;;24.53;15.72;97551.75;5073385;28;20428;-68
2022/01/05 07:05:07;;;;;;;3.88;1.88;;;;;;;24.48;15.76;97557.44;5072983;28;20479;-68
2022/01/05 07:07:33;;;;;;;3.80;1.67;;;;;;;24.53;15.76;97547.06;5072985;28;20055;-68
2022/01/05 07:09:58;;;;;;;3.83;1.50;;;;;;;24.54;16.00;97551.44;5073685;28;20024;-69
2022/01/05 07:12:24;;;;;;;2.60;1.45;;;;;;;24.55;15.94;97554.94;5073421;28;20531;-69
2022/01/05 07:14:49;;;;;;;4.90;2.17;;;;;;;24.58;15.82;97547.97;5072886;28;20424;-69
2022/01/05 07:17:14;;;;;;;3.40;1.35;;;;;;;24.61;15.74;97547.28;5072897;28;20105;-69
2022/01/05 07:19:40;;;;;;;3.53;2.15;;;;;;;24.60;15.84;97548.44;5073525;28;20029;-70
2022/01/05 07:22:05;;;;;;;3.63;2.05;;;;;;;24.34;16.37;97555.13;5073862;28;20028;-69
2022/01/05 07:24:31;;;;;;;3.08;1.13;;;;;;;24.30;16.46;97559.69;5054872;28;20473;-69
2022/01/05 07:26:56;;;;;;;2.40;1.55;;;;;;;24.21;16.37;97550.84;5062666;28;20037;-69
2022/01/05 07:29:21;;;;;;;5.15;2.17;;;;;;;24.30;16.64;97548.75;5052570;28;20083;-69
2022/01/05 07:31:47;;;;;;;2.00;0.95;;;;;;;24.25;16.61;97552.56;5053110;28;20371;-69
2022/01/05 07:34:12;;;;;;;2.13;1.17;;;;;;;24.28;16.30;97557.28;5052694;28;20452;-68
2022/01/05 07:36:38;;;;;;;3.85;1.70;;;;;;;24.28;16.20;97548.31;5052754;28;20022;-68
2022/01/05 07:39:05;;;;;;;0.60;0.60;;;;;;;24.28;16.40;97551.06;5053247;28;20021;-68
2022/01/05 07:41:31;;;;;;;0.68;0.40;;;;;;;24.19;16.08;97549.25;5055918;28;20029;-67
2022/01/05 07:43:56;;;;;;;3.97;0.80;;;;;;;24.23;16.35;97554.03;5056655;28;20510;-68
2022/01/05 07:46:22;;;;;;;1.23;0.70;;;;;;;24.25;16.36;97552.56;5056386;28;20021;-69
2022/01/05 07:48:47;;;;;;;1.17;0.50;;;;;;;24.27;16.17;97549.47;5055467;28;20037;-67
2022/01/05 07:51:12;;;;;;;0.68;0.68;;;;;;;24.31;16.02;97550.34;5056273;28;20044;-69
2022/01/05 07:53:38;;;;;;;0.80;0.50;;;;;;;24.36;15.94;97558.28;5056257;28;20128;-68
2022/01/05 07:56:04;;;;;;;2.22;0.50;;;;;;;24.47;15.92;97537.53;5056501;28;20464;-67
2022/01/05 07:58:29;;;;;;;1.13;0.47;;;;;;;24.53;15.84;97549.78;5056385;28;20052;-69
2022/01/05 08:00:54;;;;;;;0.68;0.50;;;;;;;24.70;15.84;97547.94;5056291;28;20041;-68
2022/01/05 08:03:20;;;;;;;2.50;0.40;;;;;;;24.64;15.68;97557.50;5054597;28;20036;-68
2022/01/05 08:05:45;;;;;;;3.25;1.52;;;;;;;24.71;15.93;97547.56;5054639;28;20056;-68
2022/01/05 08:08:11;;;;;;;1.65;0.50;;;;;;;24.76;15.70;97551.97;5055095;28;20451;-70
2022/01/05 08:10:36;;;;;;;0.35;0.35;;;;;;;24.86;15.32;97550.66;5055914;28;20146;-67
2022/01/05 08:13:02;;;;;;;0.60;0.57;;;;;;;24.94;15.35;97557.91;5056413;28;20029;-67
2022/01/05 08:15:27;;;;;;;0.68;0.40;;;;;;;24.91;15.51;97562.13;5056220;28;20032;-69
2022/01/05 08:17:53;;;;;;;0.70;0.50;;;;;;;25.05;15.16;97555.44;5055666;28;20476;-67
2022/01/05 08:20:18;;;;;;;2.05;0.40;;;;;;;25.02;15.48;97553.41;5055965;28;20048;-68
2022/01/05 08:22:44;;;;;;;1.77;0.63;;;;;;;25.02;15.55;97553.41;5055670;28;20483;-66
2022/01/05 08:25:11;;;;;;;2.50;0.90;;;;;;;25.09;15.68;97550.84;5054788;28;20029;-68
2022/01/05 08:27:37;;;;;;;0.93;0.55;;;;;;;25.13;15.52;97557.22;5069791;28;20052;-68
2022/01/05 08:30:05;;;;;;;3.92;1.00;;;;;;;25.19;15.42;97544.06;5074535;28;20031;-67
2022/01/05 08:32:32;;;;;;;4.82;2.20;;;;;;;25.22;15.45;97538.69;5076085;28;20505;-66
2022/01/05 08:34:57;;;;;;;2.03;1.20;;;;;;;25.12;15.26;97548.19;5062267;28;20020;-67
2022/01/05 08:37:22;;;;;;;4.45;1.73;;;;;;;25.19;15.52;97547.56;5081116;28;20031;-66
2022/01/05 08:39:49;;;;;;;3.20;1.45;;;;;;;25.25;15.35;97537.16;5079545;28;20056;-66
2022/01/05 08:42:15;;;;;;;3.65;1.38;;;;;;;25.26;15.22;97545.03;5077019;28;20499;-67
2022/01/05 08:44:40;;;;;;;2.25;1.27;;;;;;;25.35;15.60;97541.34;5077507;28;20028;-69
2022/01/05 08:47:07;;;;;;;1.17;0.80;;;;;;;25.32;15.44;97542.03;5075597;28;20063;-67
2022/01/05 08:49:33;;;;;;;2.10;0.88;;;;;;;25.34;15.53;97535.09;5075706;28;20048;-68
2022/01/05 08:51:58;;;;;;;2.65;0.70;;;;;;;25.35;15.19;97542.13;5073119;28;20025;-69
2022/01/05 08:54:24;;;;;;;1.45;0.55;;;;;;;25.37;15.25;97536.31;5076704;28;20017;-68
2022/01/05 08:56:50;;;;;;;0.82;0.50;;;;;;;25.36;15.39;97548.41;5075369;28;20024;-67
2022/01/05 08:59:15;;;;;;;1.15;0.40;;;;;;;25.36;15.13;97545.66;5075061;28;20033;-67
2022/01/05 09:01:43;;;;;;;0.50;0.50;;;;;;;25.33;15.15;97540.91;5075730;28;20045;-67
2022/01/05 09:04:08;;;;;;;0.68;0.40;;;;;;;25.35;15.01;97538.59;5076707;28;20052;-67
2022/01/05 09:06:34;;;;;;;0.32;0.30;;;;;;;25.35;15.03;97541.34;5074870;28;20482;-67
2022/01/05 09:09:02;;;;;;;0.45;0.45;;;;;;;25.38;15.00;97540.63;5075936;28;20037;-67
2022/01/05 09:11:28;;;;;;;0.40;0.40;;;;;;;25.33;14.70;97538.16;5075259;28;20029;-68
2022/01/05 09:13:53;;;;;;;1.52;0.45;;;;;;;25.35;14.82;97541.34;5075028;28;20086;-67
2022/01/05 09:16:20;;;;;;;1.58;0.73;;;;;;;25.40;14.89;97539.13;5074597;28;20104;-67
2022/01/05 09:18:46;;;;;;;1.33;0.73;;;;;;;25.41;15.06;97539.94;5073509;28;20427;-67
2022/01/05 09:21:11;;;;;;;0.55;0.40;;;;;;;25.47;15.17;97538.50;5075201;28;20029;-67
2022/01/05 09:23:36;;;;;;;1.77;0.63;;;;;;;25.48;15.07;97540.88;5075493;28;20036;-67
2022/01/05 09:26:02;;;;;;;0.40;0.40;;;;;;;25.47;15.07;97536.56;5074533;28;20021;-67
2022/01/05 09:28:28;;;;;;;0.85;0.55;;;;;;;25.49;15.06;97536.19;5055017;28;20051;-67
2022/01/05 09:30:54;;;;;;;1.25;0.50;;;;;;;25.54;14.98;97538.66;5056407;28;20472;-65
2022/01/05 09:33:22;;;;;;;0.57;0.30;;;;;;;25.55;14.94;97537.50;5055513;28;20068;-67
2022/01/05 09:35:49;;;;;;;0.75;0.25;;;;;;;25.60;14.56;97537.22;5054948;28;20028;-66
2022/01/05 09:38:36;;;;;;;0.47;0.40;;;;;;;25.67;14.49;97540.13;5054283;28;20021;-66
2022/01/05 09:43:54;;;;;;;0.25;0.25;;;;;;;25.72;14.31;97547.25;5054702;28;20044;-67
2022/01/05 09:46:44;;;;;;;0.20;0.20;;;;;;;25.77;14.38;97546.19;5054560;28;20033;-67
2022/01/05 09:49:10;;;;;;;0.45;0.30;;;;;;;25.75;14.22;97549.28;5054949;28;20024;-67
2022/01/05 09:51:36;;;;;;;0.40;0.40;;;;;;;25.66;14.21;97546.75;5054158;28;20388;-67
2022/01/05 09:54:02;;;;;;;0.32;0.30;;;;;;;25.72;14.59;97550.00;5054115;28;20517;-67
2022/01/05 09:56:30;;;;;;;0.43;0.30;;;;;;;25.68;14.63;97552.66;5054557;28;20104;-69
2022/01/05 09:59:02;;;;;;;0.30;0.30;;;;;;;25.70;14.68;97551.50;5054402;28;20059;-68
2022/01/05 10:01:30;;;;;;;1.17;0.20;;;;;;;25.71;14.23;97553.09;5053033;28;20033;-68
2022/01/05 10:03:57;;;;;;;0.38;0.30;;;;;;;25.68;14.55;97551.84;5054201;28;20028;-70
2022/01/05 10:06:22;;;;;;;0.55;0.28;;;;;;;25.64;14.39;97553.72;5052717;28;20049;-69
2022/01/05 10:08:47;;;;;;;0.47;0.30;;;;;;;25.74;14.30;97546.91;5054310;28;20349;-70
2022/01/05 10:11:13;;;;;;;0.20;0.20;;;;;;;25.70;14.36;97548.75;5052701;28;20029;-68
2022/01/05 10:13:38;;;;;;;0.50;0.20;;;;;;;25.67;14.39;97553.78;5053945;28;20528;-69
2022/01/05 10:16:05;;;;;;;1.35;0.30;;;;;;;25.77;14.24;97551.66;5054093;28;20021;-69
2022/01/05 10:18:38;;;;;;;0.20;0.20;;;;;;;25.70;14.42;97552.31;5053765;28;20491;-68
2022/01/05 10:21:05;;;;;;;0.20;0.20;;;;;;;25.76;14.68;97539.91;5054164;28;20033;-68
2022/01/05 10:23:45;;;;;;;0.20;0.20;;;;;;;25.76;14.58;97534.44;5053911;28;20116;-69
2022/01/05 10:26:24;;;;;;;44.38;6.25;;;;;;;25.81;14.42;97522.44;5053322;28;20064;-68
2022/01/05 10:29:14;;;;;;;36.05;5.10;;;;;;;25.75;14.57;97526.59;5033462;28;20029;-69
2022/01/05 10:31:40;;;;;;;18.55;3.70;;;;;;;25.78;14.80;97521.19;5033108;28;20037;-69
2022/01/05 10:34:19;;;;;;;29.08;3.53;;;;;;;25.85;14.49;97526.84;5033643;28;20460;-69
2022/01/05 10:36:46;;;;;;;19.88;4.05;;;;;;;25.79;14.62;97538.41;5033374;28;20472;-71
2022/01/05 10:39:11;;;;;;;21.15;3.30;;;;;;;25.75;14.80;97532.06;5033289;28;20387;-68
2022/01/05 10:41:37;;;;;;;16.38;2.45;;;;;;;25.77;14.49;97527.06;5032414;28;20030;-68
2022/01/05 10:44:07;;;;;;;15.27;2.53;;;;;;;25.80;14.31;97531.78;5033948;28;20352;-69
2022/01/05 10:46:41;;;;;;;12.13;1.48;;;;;;;25.80;14.61;97529.03;5033274;28;20040;-69
2022/01/05 10:49:07;;;;;;;;;;;;;;;26.07;14.26;97532.00;5033995;28;20021;-66
2022/01/05 10:51:33;;;;;;;10.00;2.40;;;;;;;25.93;14.54;97533.25;5033400;28;19909;-68
2022/01/05 10:54:17;;;;;;;9.32;2.22;;;;;;;25.91;14.33;97523.81;5033338;28;20025;-68
2022/01/05 10:56:43;;;;;;;12.45;1.75;;;;;;;25.88;14.54;97532.75;5032904;28;20033;-68
2022/01/05 10:59:09;;;;;;;4.40;1.17;;;;;;;25.85;14.28;97532.31;5033542;28;20035;-68
2022/01/05 11:01:35;;;;;;;4.53;1.33;;;;;;;25.89;14.19;97526.91;5033482;28;20455;-68
2022/01/05 11:04:22;;;;;;;3.85;1.13;;;;;;;25.95;14.32;97525.50;5033288;28;20104;-68
2022/01/05 11:07:03;;;;;;;2.63;0.82;;;;;;;25.94;14.53;97521.19;5033612;28;20368;-67
2022/01/05 11:09:32;;;;;;;6.03;0.80;;;;;;;25.88;14.69;97536.25;5033478;28;20510;-70
2022/01/05 11:11:58;;;;;;;1.52;0.73;;;;;;;25.93;14.59;97527.78;5032306;28;20039;-68
2022/01/05 11:14:30;;;;;;;0.88;0.55;;;;;;;25.91;14.75;97538.28;5033099;28;20029;-68
2022/01/05 11:16:57;;;;;;;6.15;2.05;;;;;;;25.98;14.83;97533.00;5033306;28;20373;-67
2022/01/05 11:19:22;;;;;;;6.25;2.20;;;;;;;25.89;14.74;97529.66;5033149;28;20456;-68
2022/01/05 11:21:56;;;;;;;9.32;2.80;;;;;;;25.94;14.73;97523.94;5033794;28;20036;-68
2022/01/05 11:24:22;;;;;;;5.38;2.40;;;;;;;25.92;14.58;97519.91;5033135;28;20033;-68
2022/01/05 11:26:47;;;;;;;5.82;2.15;;;;;;;25.88;14.50;97530.00;5037225;28;20047;-68
2022/01/05 11:29:12;;;;;;;5.07;1.95;;;;;;;25.92;14.26;97528.91;5071791;28;20024;-68
2022/01/05 11:31:38;;;;;;;7.60;2.88;;;;;;;25.90;14.49;97525.75;5072818;28;20094;-67
2022/01/05 11:34:03;;;;;;;6.28;2.08;;;;;;;25.87;14.26;97523.72;5071533;28;20509;-67